Little Rock, AR (72216)

7:08 AM CDT on September 04, 2015 (GMT -0500)
Central Business Equipment | | Change Station
CLOSE
Current Station
Personal Weather Station
Location: Sherwood, AR
Elevation: 288 ft
Nearby Weather Stations

Elev 288 ft 34.82 °N, 92.20 °W | Updated 8 seconds ago

Clear
Clear
71.4 °F
Feels Like 71.4 °F
N
0.0
Wind Variable Wind from SE
Gusts 0.0 mph

Today
High -- | Low -- °F
--% Chance of Precip.
Yesterday
High -- | Low -- °F
Precip. -- in
6:43 AM 7:31 PM
Waning Gibbous, 60% visible
Pressure 29.99 in
Visibility 7.0 miles
Clouds Scattered Clouds 25000 ft
Dew Point 70 °F
Humidity 95%
Rainfall 0.00 in
Snow Depth Not available.
UV 0 out of 12
Pollen 10.20 out of 12
Air Quality Not available.
Flu Activity Not available.
METAR KLIT 041153Z 00000KT 7SM SCT250 23/21 A2999 RMK AO2 SLP155 T02330206 10250 20228 53015
Pressure 29.99 in
Visibility 7.0 miles
Clouds Scattered Clouds 25000 ft
Dew Point 70 °F
Humidity 95%
Rainfall 0.00 in
Snow Depth Not available.
UV 0 out of 12
Pollen 10.20 out of 12
Air Quality Not available.
Flu Activity Not available.
METAR KLIT 041153Z 00000KT 7SM SCT250 23/21 A2999 RMK AO2 SLP155 T02330206 10250 20228 53015

10-Day Weather Forecast

×

Almanac

Astronomy

Sep. 04, 2015 Rise Set
Actual Time
Civil Twilight
Nautical Twilight
Astronomical Twilight
Moon
Length of Visible Light
Length of Day
Tomorrow will be .
, % of the Moon is Illuminated

Today's Extremes

State Highs State Lows

Community

WunderPhotos

Upload Photos

1,852,161 photos uploaded!

WunderBlogs® & News

Nearby

Air Quality

  Air Quality AQ Index Pollutant
Not available.

Snow Depth

Station Depth Elevation

Earthquake Activity

City Distance Mag. Time & Date
Minimum magnitude displayed is 2.5.

Coastal Water Temperatures

Place Temperature

Stations

Nearby Weather Stations

Station Location Temp. Windchill Dew Point Humidity Wind Precip. Elev Updated Type